Time;durP1;ratioP1;P1;durP2;ratioP2;P2;SDS_P1;SDS_P2;PMS_P1;PMS_P2;Temp;Humidity;BMP_temperature;BMP_pressure;BME280_temperature;BME280_humidity;BME280_pressure;Samples;Min_cycle;Max_cycle;Signal;HPM_P1;HPM_P2
2023/10/25 00:00:08;;;;;;;3.47;2.13;;;;;;;;;;6195586;28;20516;-79
2023/10/25 00:03:12;;;;;;;2.95;2.25;;;;;;;;;;6193757;28;20027;-79
2023/10/25 00:06:12;;;;;;;2.25;2.05;;;;;;;;;;6170160;28;20027;-78
2023/10/25 00:09:13;;;;;;;2.30;2.10;;;;;;;;;;6184863;28;20454;-76
2023/10/25 00:12:13;;;;;;;1.98;1.75;;;;;;;;;;6182914;28;20023;-79
2023/10/25 00:15:13;;;;;;;2.30;1.67;;;;;;;;;;6195527;28;20081;-79
2023/10/25 00:18:13;;;;;;;2.30;2.10;;;;;;;;;;6181928;28;20337;-80
2023/10/25 00:21:14;;;;;;;2.17;1.97;;;;;;;;;;6186902;28;20025;-78
2023/10/25 00:24:14;;;;;;;2.17;1.93;;;;;;;;;;6189030;28;20030;-78
2023/10/25 00:27:14;;;;;;;2.20;2.00;;;;;;;;;;6183372;28;20350;-78
2023/10/25 00:30:14;;;;;;;2.97;2.40;;;;;;;;;;6183974;28;20076;-78
2023/10/25 00:33:14;;;;;;;2.37;2.17;;;;;;;;;;6182807;28;20468;-80
2023/10/25 00:36:15;;;;;;;2.87;2.40;;;;;;;;;;6183964;28;20102;-78
2023/10/25 00:39:15;;;;;;;2.72;2.33;;;;;;;;;;6183684;28;20053;-78
2023/10/25 00:42:16;;;;;;;3.00;2.70;;;;;;;;;;6195916;28;20035;-79
2023/10/25 00:45:16;;;;;;;2.90;2.60;;;;;;;;;;6190867;28;20109;-78
2023/10/25 00:48:16;;;;;;;2.73;2.53;;;;;;;;;;6186927;28;20386;-79
2023/10/25 00:51:19;;;;;;;3.47;2.80;;;;;;;;;;6194117;28;20018;-78
2023/10/25 00:54:19;;;;;;;3.05;2.53;;;;;;;;;;6180963;28;20034;-78
2023/10/25 00:57:20;;;;;;;3.00;2.70;;;;;;;;;;6180300;28;20027;-78
2023/10/25 01:00:20;;;;;;;3.00;2.70;;;;;;;;;;6192936;28;20076;-79
2023/10/25 01:03:20;;;;;;;3.17;2.87;;;;;;;;;;6159383;28;20038;-79
2023/10/25 01:06:21;;;;;;;2.60;2.40;;;;;;;;;;6177969;28;20471;-79
2023/10/25 01:09:21;;;;;;;2.60;2.40;;;;;;;;;;6162386;28;20033;-79
2023/10/25 01:12:21;;;;;;;4.33;2.70;;;;;;;;;;6192197;28;20019;-79
2023/10/25 01:15:24;;;;;;;2.17;2.00;;;;;;;;;;6184809;28;20081;-79
2023/10/25 01:18:24;;;;;;;2.83;2.50;;;;;;;;;;6179412;28;20113;-78
2023/10/25 01:21:25;;;;;;;3.60;2.27;;;;;;;;;;6192295;28;20026;-78
2023/10/25 01:24:25;;;;;;;2.30;1.97;;;;;;;;;;6194598;28;20109;-79
2023/10/25 01:27:25;;;;;;;2.93;2.53;;;;;;;;;;6161827;28;20045;-79
2023/10/25 01:30:26;;;;;;;2.27;2.07;;;;;;;;;;6191970;28;20015;-78
2023/10/25 01:33:26;;;;;;;2.33;2.03;;;;;;;;;;6188870;28;20030;-79
2023/10/25 01:36:26;;;;;;;2.43;2.23;;;;;;;;;;6182022;28;20038;-83
2023/10/25 01:39:26;;;;;;;3.90;2.20;;;;;;;;;;6183972;28;20039;-84
2023/10/25 01:42:27;;;;;;;2.40;2.20;;;;;;;;;;6172260;28;20026;-84
2023/10/25 01:45:27;;;;;;;2.37;2.17;;;;;;;;;;6179976;28;20550;-84
2023/10/25 01:48:27;;;;;;;3.53;1.80;;;;;;;;;;6194852;28;20010;-84
2023/10/25 01:51:27;;;;;;;2.00;1.90;;;;;;;;;;6194911;28;20387;-83
2023/10/25 01:54:28;;;;;;;1.87;1.77;;;;;;;;;;6183695;28;20034;-84
2023/10/25 01:57:28;;;;;;;2.17;1.97;;;;;;;;;;6191665;28;20153;-83
2023/10/25 02:00:28;;;;;;;2.20;2.00;;;;;;;;;;6184266;28;20471;-84
2023/10/25 02:03:28;;;;;;;2.43;2.13;;;;;;;;;;6206841;28;20026;-83
2023/10/25 02:06:30;;;;;;;1.97;1.87;;;;;;;;;;6214343;28;20025;-83
2023/10/25 02:09:30;;;;;;;2.00;1.75;;;;;;;;;;6195050;28;20046;-84
2023/10/25 02:12:31;;;;;;;2.47;1.90;;;;;;;;;;6192524;28;20035;-84
2023/10/25 02:15:31;;;;;;;2.13;1.93;;;;;;;;;;6217138;28;20034;-84
2023/10/25 02:18:31;;;;;;;2.07;1.90;;;;;;;;;;6202432;28;20060;-83
2023/10/25 02:21:37;;;;;;;2.27;1.83;;;;;;;;;;6194469;28;20023;-84
2023/10/25 02:24:38;;;;;;;3.13;1.83;;;;;;;;;;6195130;28;20370;-84
2023/10/25 02:27:38;;;;;;;2.37;1.83;;;;;;;;;;6193056;28;20026;-84
2023/10/25 02:30:39;;;;;;;2.37;1.87;;;;;;;;;;6171502;28;20061;-84
2023/10/25 02:33:39;;;;;;;2.13;2.03;;;;;;;;;;6181340;28;20030;-84
2023/10/25 02:36:40;;;;;;;1.70;1.60;;;;;;;;;;6193652;28;20038;-84
2023/10/25 02:39:42;;;;;;;2.00;1.80;;;;;;;;;;6194669;28;20042;-84
2023/10/25 02:42:44;;;;;;;1.98;1.85;;;;;;;;;;6177588;28;20377;-84
2023/10/25 02:45:50;;;;;;;2.33;2.13;;;;;;;;;;6169451;28;20062;-83
2023/10/25 02:48:51;;;;;;;2.13;1.92;;;;;;;;;;6193636;28;20022;-83
2023/10/25 02:51:52;;;;;;;1.95;1.85;;;;;;;;;;6194179;28;20025;-84
2023/10/25 02:54:53;;;;;;;2.23;2.03;;;;;;;;;;6191987;28;20026;-84
2023/10/25 02:57:54;;;;;;;3.38;2.30;;;;;;;;;;6181865;28;20026;-83
2023/10/25 03:00:56;;;;;;;2.10;1.90;;;;;;;;;;6192455;28;20026;-83
2023/10/25 03:03:56;;;;;;;2.88;2.13;;;;;;;;;;6197668;28;20060;-83
2023/10/25 03:06:56;;;;;;;1.80;1.70;;;;;;;;;;6185928;28;20023;-83
2023/10/25 03:09:57;;;;;;;2.00;1.77;;;;;;;;;;6186016;28;20261;-84
2023/10/25 03:12:57;;;;;;;2.00;1.80;;;;;;;;;;6170738;28;20533;-83
2023/10/25 03:15:57;;;;;;;1.83;1.47;;;;;;;;;;6189879;28;20062;-84
2023/10/25 03:18:57;;;;;;;2.20;2.00;;;;;;;;;;6164474;28;20030;-83
2023/10/25 03:21:58;;;;;;;2.03;1.70;;;;;;;;;;6182075;28;20019;-83
2023/10/25 03:24:58;;;;;;;2.07;1.97;;;;;;;;;;6175942;28;20121;-84
2023/10/25 03:27:58;;;;;;;2.00;1.83;;;;;;;;;;6171286;28;20266;-83
2023/10/25 03:31:06;;;;;;;2.10;1.90;;;;;;;;;;6180063;28;20026;-83
2023/10/25 03:34:06;;;;;;;1.90;1.75;;;;;;;;;;6188585;28;20026;-83
2023/10/25 03:37:06;;;;;;;2.40;2.00;;;;;;;;;;6170620;28;20069;-83
2023/10/25 03:40:10;;;;;;;2.10;1.90;;;;;;;;;;6170070;28;20391;-83
2023/10/25 03:43:10;;;;;;;1.77;1.67;;;;;;;;;;6171300;28;20015;-83
2023/10/25 03:46:10;;;;;;;1.50;1.40;;;;;;;;;;6184358;28;20018;-83
2023/10/25 03:49:11;;;;;;;1.90;1.60;;;;;;;;;;6191277;28;20015;-83
2023/10/25 03:52:11;;;;;;;1.80;1.57;;;;;;;;;;6182970;28;20113;-83
2023/10/25 03:55:11;;;;;;;1.53;1.43;;;;;;;;;;6191623;28;20399;-83
2023/10/25 03:58:11;;;;;;;1.40;1.30;;;;;;;;;;6196136;28;20025;-83
2023/10/25 04:01:13;;;;;;;1.53;1.43;;;;;;;;;;6196139;28;20026;-83
2023/10/25 04:04:13;;;;;;;;;;;;;;;;;;6210609;28;20033;-83
2023/10/25 04:07:14;;;;;;;1.10;1.00;;;;;;;;;;6203731;28;19914;-78
2023/10/25 04:10:14;;;;;;;1.58;1.48;;;;;;;;;;6225989;28;20494;-79
2023/10/25 04:13:14;;;;;;;1.67;1.57;;;;;;;;;;6180373;28;20140;-79
2023/10/25 04:16:14;;;;;;;1.80;1.70;;;;;;;;;;6201211;28;20093;-78
2023/10/25 04:19:15;;;;;;;1.60;1.40;;;;;;;;;;6194650;28;20041;-78
2023/10/25 04:22:15;;;;;;;1.80;1.70;;;;;;;;;;6184986;28;20019;-78
2023/10/25 04:25:15;;;;;;;1.70;1.60;;;;;;;;;;6181874;28;20038;-79
2023/10/25 04:28:16;;;;;;;2.00;1.70;;;;;;;;;;6178899;28;20020;-80
2023/10/25 04:31:20;;;;;;;2.13;1.92;;;;;;;;;;6173208;28;20023;-78
2023/10/25 04:34:20;;;;;;;3.13;2.67;;;;;;;;;;6154532;28;20041;-78
2023/10/25 04:37:21;;;;;;;2.77;2.47;;;;;;;;;;6188054;28;20022;-78
2023/10/25 04:40:21;;;;;;;2.23;2.03;;;;;;;;;;6195395;28;20407;-79
2023/10/25 04:43:21;;;;;;;2.07;1.87;;;;;;;;;;6194192;28;20075;-78
2023/10/25 04:46:22;;;;;;;2.60;2.37;;;;;;;;;;6194169;28;20277;-78
2023/10/25 04:49:22;;;;;;;2.00;1.90;;;;;;;;;;6182069;28;20540;-79
2023/10/25 04:52:22;;;;;;;2.73;2.53;;;;;;;;;;6194332;28;20422;-78
2023/10/25 04:55:26;;;;;;;2.60;2.40;;;;;;;;;;6191992;28;20035;-78
2023/10/25 04:58:27;;;;;;;3.30;2.47;;;;;;;;;;6182220;28;20097;-79
2023/10/25 05:01:27;;;;;;;2.38;2.17;;;;;;;;;;6194611;28;20030;-79
2023/10/25 05:04:30;;;;;;;2.43;2.17;;;;;;;;;;6203787;28;20486;-78
2023/10/25 05:07:30;;;;;;;2.67;2.47;;;;;;;;;;6193222;28;20038;-78
2023/10/25 05:10:31;;;;;;;2.30;2.10;;;;;;;;;;6193840;28;20023;-78
2023/10/25 05:13:31;;;;;;;2.28;2.08;;;;;;;;;;6196443;28;20483;-78
2023/10/25 05:16:32;;;;;;;3.05;2.75;;;;;;;;;;6177903;28;20034;-82
2023/10/25 05:19:32;;;;;;;2.92;2.60;;;;;;;;;;6193078;28;20071;-83
2023/10/25 05:22:34;;;;;;;2.90;2.53;;;;;;;;;;6194202;28;20050;-83
2023/10/25 05:25:34;;;;;;;3.08;2.40;;;;;;;;;;6194178;28;20035;-83
2023/10/25 05:28:35;;;;;;;2.30;2.10;;;;;;;;;;6196496;28;20022;-83
2023/10/25 05:31:39;;;;;;;1.83;1.70;;;;;;;;;;6195772;28;20391;-83
2023/10/25 05:34:39;;;;;;;2.40;2.20;;;;;;;;;;6192071;28;20053;-83
2023/10/25 05:37:40;;;;;;;1.83;1.73;;;;;;;;;;6179457;28;20417;-83
2023/10/25 05:40:44;;;;;;;1.40;1.30;;;;;;;;;;6185648;28;20080;-83
2023/10/25 05:43:47;;;;;;;1.65;1.55;;;;;;;;;;6172265;28;20022;-83
2023/10/25 05:46:47;;;;;;;1.58;1.48;;;;;;;;;;6176345;28;20022;-83
2023/10/25 05:49:48;;;;;;;1.87;1.67;;;;;;;;;;6193612;28;20546;-83
2023/10/25 05:52:48;;;;;;;1.70;1.60;;;;;;;;;;6193732;28;20112;-83
2023/10/25 05:55:49;;;;;;;2.30;1.60;;;;;;;;;;6173309;28;20034;-83
2023/10/25 05:58:49;;;;;;;2.13;1.67;;;;;;;;;;6194423;28;20030;-79
2023/10/25 06:01:51;;;;;;;1.60;1.50;;;;;;;;;;6191641;28;20041;-79
2023/10/25 06:04:53;;;;;;;1.33;1.23;;;;;;;;;;6180829;28;20019;-79
2023/10/25 06:07:53;;;;;;;1.20;1.10;;;;;;;;;;6183072;28;20050;-80
2023/10/25 06:10:54;;;;;;;1.30;1.20;;;;;;;;;;6184598;28;20030;-79
2023/10/25 06:13:54;;;;;;;1.73;1.40;;;;;;;;;;6182414;28;20025;-79
2023/10/25 06:16:54;;;;;;;1.27;1.10;;;;;;;;;;6173046;28;20038;-78
2023/10/25 06:19:54;;;;;;;1.77;1.03;;;;;;;;;;6193742;28;20025;-79
2023/10/25 06:22:56;;;;;;;1.30;1.20;;;;;;;;;;6194688;28;20445;-79
2023/10/25 06:25:59;;;;;;;1.92;0.93;;;;;;;;;;6186137;28;20502;-78
2023/10/25 06:29:00;;;;;;;1.20;1.10;;;;;;;;;;6193945;28;20030;-79
2023/10/25 06:32:00;;;;;;;1.40;1.17;;;;;;;;;;6189175;28;20030;-79
2023/10/25 06:35:00;;;;;;;1.60;1.00;;;;;;;;;;6193840;28;20098;-79
2023/10/25 06:38:00;;;;;;;1.60;1.00;;;;;;;;;;6194351;28;20463;-78
2023/10/25 06:41:01;;;;;;;1.23;1.13;;;;;;;;;;6194561;28;20042;-79
2023/10/25 06:44:01;;;;;;;1.10;0.88;;;;;;;;;;6179483;28;20027;-79
2023/10/25 06:47:03;;;;;;;1.00;0.90;;;;;;;;;;6190737;28;20031;-79
2023/10/25 06:50:04;;;;;;;1.40;1.30;;;;;;;;;;6169249;28;20029;-79
2023/10/25 06:53:05;;;;;;;1.33;1.23;;;;;;;;;;6168016;28;20479;-79
2023/10/25 06:56:05;;;;;;;1.40;1.30;;;;;;;;;;6197365;28;20416;-79
2023/10/25 06:59:07;;;;;;;0.80;0.80;;;;;;;;;;6181212;28;20037;-79
2023/10/25 07:02:17;;;;;;;1.33;0.90;;;;;;;;;;6189821;28;20019;-79
2023/10/25 07:05:19;;;;;;;1.13;0.90;;;;;;;;;;6187941;28;20022;-80
2023/10/25 07:08:21;;;;;;;1.20;1.00;;;;;;;;;;6193651;28;20026;-79
2023/10/25 07:11:21;;;;;;;1.20;0.90;;;;;;;;;;6194595;28;20058;-79
2023/10/25 07:14:21;;;;;;;1.30;1.00;;;;;;;;;;6194344;28;20272;-79
2023/10/25 07:17:22;;;;;;;0.87;0.87;;;;;;;;;;6186252;28;20469;-79
2023/10/25 07:20:22;;;;;;;1.00;0.90;;;;;;;;;;6176219;28;20034;-79
2023/10/25 07:23:22;;;;;;;0.88;0.82;;;;;;;;;;6180276;28;20027;-80
2023/10/25 07:26:23;;;;;;;0.70;0.70;;;;;;;;;;6175179;28;20046;-81
2023/10/25 07:29:23;;;;;;;1.00;0.87;;;;;;;;;;6189893;28;20026;-80
2023/10/25 07:32:23;;;;;;;0.83;0.80;;;;;;;;;;6173437;28;20083;-79
2023/10/25 07:35:23;;;;;;;1.20;0.93;;;;;;;;;;6182246;28;20038;-80
2023/10/25 07:38:23;;;;;;;0.93;0.73;;;;;;;;;;6173115;28;20105;-80
2023/10/25 07:41:24;;;;;;;0.83;0.83;;;;;;;;;;6163454;28;20018;-79
2023/10/25 07:44:24;;;;;;;0.73;0.73;;;;;;;;;;6195020;28;20027;-79
2023/10/25 07:47:24;;;;;;;0.87;0.80;;;;;;;;;;6194039;28;20034;-79
2023/10/25 07:50:24;;;;;;;0.70;0.70;;;;;;;;;;6174739;28;20113;-79
2023/10/25 07:53:25;;;;;;;1.17;1.07;;;;;;;;;;6184734;28;20110;-80
2023/10/25 07:56:25;;;;;;;0.77;0.77;;;;;;;;;;6173941;28;20039;-77
2023/10/25 07:59:25;;;;;;;2.80;2.33;;;;;;;;;;6188999;28;20019;-77
2023/10/25 08:02:25;;;;;;;1.67;1.57;;;;;;;;;;6193787;28;20037;-77
2023/10/25 08:05:26;;;;;;;1.23;1.17;;;;;;;;;;6187523;28;20491;-77
2023/10/25 08:08:26;;;;;;;1.00;0.90;;;;;;;;;;6182013;28;20549;-78
2023/10/25 08:11:26;;;;;;;1.60;1.20;;;;;;;;;;6186457;28;20030;-77
2023/10/25 08:14:26;;;;;;;0.77;0.77;;;;;;;;;;6183410;28;20034;-76
2023/10/25 08:17:26;;;;;;;0.90;0.90;;;;;;;;;;6189716;28;20030;-77
2023/10/25 08:20:27;;;;;;;1.00;1.00;;;;;;;;;;6187245;28;20027;-76
2023/10/25 08:23:27;;;;;;;1.10;1.00;;;;;;;;;;6197483;28;20022;-77
2023/10/25 08:26:28;;;;;;;2.20;0.98;;;;;;;;;;6196040;28;20026;-77
2023/10/25 08:29:28;;;;;;;0.95;0.95;;;;;;;;;;6185325;28;20031;-76
2023/10/25 08:32:28;;;;;;;1.10;1.00;;;;;;;;;;6194453;28;20095;-77
2023/10/25 08:35:29;;;;;;;0.88;0.88;;;;;;;;;;6194749;28;20033;-77
2023/10/25 08:38:29;;;;;;;0.73;0.73;;;;;;;;;;6195935;28;20072;-77
2023/10/25 08:41:30;;;;;;;0.77;0.77;;;;;;;;;;6189532;28;20027;-77
2023/10/25 08:44:32;;;;;;;;;;;;;;;;;;6177226;28;20019;-77
2023/10/25 08:47:33;;;;;;;0.60;0.60;;;;;;;;;;6195807;28;20342;-77
2023/10/25 08:50:33;;;;;;;0.73;0.73;;;;;;;;;;6170214;28;20031;-78
2023/10/25 08:53:35;;;;;;;0.73;0.73;;;;;;;;;;6172939;28;20504;-77
2023/10/25 08:56:35;;;;;;;1.48;0.70;;;;;;;;;;6175893;28;20038;-76
2023/10/25 08:59:42;;;;;;;0.70;0.70;;;;;;;;;;6183347;28;20026;-77
2023/10/25 09:02:45;;;;;;;0.80;0.80;;;;;;;;;;6191774;28;20026;-79
2023/10/25 09:05:45;;;;;;;0.70;0.70;;;;;;;;;;6179589;28;20034;-77
2023/10/25 09:08:55;;;;;;;0.60;0.60;;;;;;;;;;6188461;28;20021;-77
2023/10/25 09:11:56;;;;;;;0.82;0.82;;;;;;;;;;6172292;28;20031;-77
2023/10/25 09:14:56;;;;;;;1.05;0.95;;;;;;;;;;6171878;28;20078;-77
2023/10/25 09:17:57;;;;;;;0.98;0.90;;;;;;;;;;6191452;28;20034;-77
2023/10/25 09:20:57;;;;;;;;;;;;;;;;;;6183547;28;20031;-77
2023/10/25 09:24:07;;;;;;;3.67;0.90;;;;;;;;;;6172451;28;20003;-77
2023/10/25 09:27:08;;;;;;;0.73;0.68;;;;;;;;;;6174761;28;20034;-77
2023/10/25 09:30:12;;;;;;;0.80;0.80;;;;;;;;;;6175275;28;20030;-77
2023/10/25 09:33:13;;;;;;;0.88;0.82;;;;;;;;;;6193122;28;20380;-79
2023/10/25 09:36:16;;;;;;;0.70;0.65;;;;;;;;;;6193227;28;20050;-77
2023/10/25 09:39:16;;;;;;;3.75;3.10;;;;;;;;;;6184436;28;20514;-77
2023/10/25 09:42:18;;;;;;;2.43;2.23;;;;;;;;;;6179497;28;20031;-78
2023/10/25 09:45:20;;;;;;;1.40;1.30;;;;;;;;;;6177286;28;20026;-78
2023/10/25 09:48:20;;;;;;;1.25;1.05;;;;;;;;;;6183052;28;20027;-79
2023/10/25 09:51:30;;;;;;;0.70;0.70;;;;;;;;;;6184225;28;20387;-77
2023/10/25 09:54:35;;;;;;;0.77;0.68;;;;;;;;;;6177370;28;20308;-78
2023/10/25 09:57:35;;;;;;;0.63;0.63;;;;;;;;;;6190764;28;20487;-78
2023/10/25 10:00:36;;;;;;;0.68;0.63;;;;;;;;;;6180454;28;20087;-78
2023/10/25 10:03:36;;;;;;;;;;;;;;;;;;6186491;28;20038;-78
2023/10/25 10:06:39;;;;;;;0.60;0.60;;;;;;;;;;6204373;28;19918;-77
2023/10/25 10:09:39;;;;;;;0.55;0.55;;;;;;;;;;6170652;28;20072;-77
2023/10/25 10:12:39;;;;;;;0.60;0.60;;;;;;;;;;6176818;28;20042;-78
2023/10/25 10:15:40;;;;;;;;;;;;;;;;;;6171313;28;20358;-77
2023/10/25 10:18:47;;;;;;;0.30;0.30;;;;;;;;;;6179443;28;19921;-80
2023/10/25 10:22:07;;;;;;;0.70;0.70;;;;;;;;;;6172173;28;20031;-77
2023/10/25 10:25:07;;;;;;;0.50;0.50;;;;;;;;;;6180686;28;20042;-78
2023/10/25 10:28:07;;;;;;;0.55;0.55;;;;;;;;;;6183789;28;20039;-77
2023/10/25 10:31:08;;;;;;;0.50;0.50;;;;;;;;;;6180666;28;20045;-78
2023/10/25 10:34:09;;;;;;;0.65;0.57;;;;;;;;;;6193680;28;20296;-77
2023/10/25 10:37:10;;;;;;;0.87;0.77;;;;;;;;;;6187441;28;20038;-77
2023/10/25 10:40:11;;;;;;;1.75;1.42;;;;;;;;;;6195612;28;20286;-77
2023/10/25 10:43:12;;;;;;;1.20;1.08;;;;;;;;;;6192658;28;20030;-78
2023/10/25 10:46:12;;;;;;;;;;;;;;;;;;6187722;28;20042;-77
2023/10/25 10:49:16;;;;;;;0.52;0.52;;;;;;;;;;6184255;28;20374;-77
2023/10/25 10:52:17;;;;;;;0.57;0.57;;;;;;;;;;6183032;28;20026;-78
2023/10/25 10:55:18;;;;;;;0.60;0.60;;;;;;;;;;6183481;28;20109;-77
2023/10/25 10:58:18;;;;;;;0.75;0.60;;;;;;;;;;6181690;28;20379;-77
2023/10/25 11:01:18;;;;;;;;;;;;;;;;;;6180465;28;20031;-78
2023/10/25 11:04:18;;;;;;;0.32;0.32;;;;;;;;;;6179914;28;19917;-77
2023/10/25 11:07:18;;;;;;;0.30;0.30;;;;;;;;;;6182926;28;20041;-77
2023/10/25 11:10:19;;;;;;;0.40;0.40;;;;;;;;;;6180876;28;20027;-80
2023/10/25 11:13:19;;;;;;;;;;;;;;;;;;6181071;28;20038;-77
2023/10/25 11:16:20;;;;;;;3.45;1.30;;;;;;;;;;6195437;28;19968;-77
2023/10/25 11:19:20;;;;;;;8.35;2.60;;;;;;;;;;6167723;28;20444;-79
2023/10/25 11:22:20;;;;;;;;;;;;;;;;;;6173271;28;20027;-77
2023/10/25 11:25:21;;;;;;;2.65;1.20;;;;;;;;;;6181024;28;19936;-78
2023/10/25 11:28:23;;;;;;;0.75;0.63;;;;;;;;;;6179739;28;20019;-76
2023/10/25 11:31:23;;;;;;;0.52;0.52;;;;;;;;;;6166328;28;20026;-77
2023/10/25 11:34:23;;;;;;;0.50;0.40;;;;;;;;;;6181747;28;20019;-77
2023/10/25 11:37:25;;;;;;;0.40;0.40;;;;;;;;;;6182934;28;20034;-76
2023/10/25 11:40:35;;;;;;;0.40;0.40;;;;;;;;;;6181124;28;20559;-77
2023/10/25 11:43:36;;;;;;;0.28;0.28;;;;;;;;;;6180896;28;20070;-76
2023/10/25 11:46:36;;;;;;;;;;;;;;;;;;6190390;28;20030;-77
2023/10/25 11:49:36;;;;;;;0.20;0.20;;;;;;;;;;6185831;28;19949;-75
2023/10/25 11:52:36;;;;;;;;;;;;;;;;;;6193747;28;20019;-75
2023/10/25 11:55:38;;;;;;;0.20;0.20;;;;;;;;;;6183119;28;19918;-75
2023/10/25 11:58:38;;;;;;;0.20;0.20;;;;;;;;;;6190613;28;20026;-76
2023/10/25 12:01:39;;;;;;;0.30;0.30;;;;;;;;;;6185509;28;20067;-74
2023/10/25 12:04:39;;;;;;;;;;;;;;;;;;6203524;28;20506;-75
2023/10/25 12:07:40;;;;;;;0.30;0.20;;;;;;;;;;6169232;28;19910;-75
2023/10/25 12:10:40;;;;;;;;;;;;;;;;;;6169945;28;20403;-75
2023/10/25 12:13:41;;;;;;;0.20;0.20;;;;;;;;;;6185787;28;19949;-75
2023/10/25 12:16:41;;;;;;;0.20;0.20;;;;;;;;;;6194164;28;20038;-75
2023/10/25 12:19:41;;;;;;;;;;;;;;;;;;6185796;28;20027;-75
2023/10/25 12:22:41;;;;;;;0.10;0.10;;;;;;;;;;6258871;28;19913;-75
2023/10/25 12:25:42;;;;;;;0.13;0.13;;;;;;;;;;6178154;28;20104;-74
2023/10/25 12:28:42;;;;;;;;;;;;;;;;;;6173632;28;20114;-75
2023/10/25 12:31:42;;;;;;;0.20;0.20;;;;;;;;;;6176325;28;19906;-74
2023/10/25 12:34:42;;;;;;;;;;;;;;;;;;6195301;28;20041;-75
2023/10/25 12:37:43;;;;;;;0.10;0.10;;;;;;;;;;6177516;28;19929;-76
2023/10/25 12:40:43;;;;;;;;;;;;;;;;;;6181607;28;20044;-75
2023/10/25 12:43:43;;;;;;;0.38;0.25;;;;;;;;;;6190442;28;19914;-75
2023/10/25 12:46:43;;;;;;;;;;;;;;;;;;6170725;28;20045;-75
2023/10/25 12:49:43;;;;;;;0.20;0.20;;;;;;;;;;6200822;28;20294;-75
2023/10/25 12:52:43;;;;;;;;;;;;;;;;;;6172808;28;20037;-76
2023/10/25 12:55:44;;;;;;;0.17;0.17;;;;;;;;;;6180376;28;19918;-75
2023/10/25 12:58:44;;;;;;;;;;;;;;;;;;6183413;28;20023;-75
2023/10/25 13:01:44;;;;;;;0.20;0.20;;;;;;;;;;6189322;28;19913;-75
2023/10/25 13:04:44;;;;;;;;;;;;;;;;;;6183038;28;20117;-76
2023/10/25 13:07:45;;;;;;;0.20;0.20;;;;;;;;;;6181634;28;20034;-75
2023/10/25 13:10:45;;;;;;;;;;;;;;;;;;6172582;28;20031;-74
2023/10/25 13:13:45;;;;;;;1.75;1.25;;;;;;;;;;6176592;28;19933;-75
2023/10/25 13:16:45;;;;;;;;;;;;;;;;;;6180239;28;20396;-74
2023/10/25 13:19:46;;;;;;;0.60;0.50;;;;;;;;;;6170503;28;19917;-74
2023/10/25 13:22:46;;;;;;;;;;;;;;;;;;6184904;28;20019;-75
2023/10/25 13:25:46;;;;;;;0.50;0.35;;;;;;;;;;6171284;28;19936;-74
2023/10/25 13:28:46;;;;;;;;;;;;;;;;;;6171033;28;20272;-75
2023/10/25 13:31:47;;;;;;;0.30;0.25;;;;;;;;;;6191384;28;19948;-76
2023/10/25 13:34:47;;;;;;;;;;;;;;;;;;6176602;28;20018;-75
2023/10/25 13:37:47;;;;;;;0.28;0.20;;;;;;;;;;6175141;28;20004;-75
2023/10/25 13:40:48;;;;;;;;;;;;;;;;;;6183055;28;20225;-76
2023/10/25 13:43:48;;;;;;;0.22;0.20;;;;;;;;;;6192184;28;19955;-75
2023/10/25 13:46:48;;;;;;;;;;;;;;;;;;6193301;28;20037;-76
2023/10/25 13:49:49;;;;;;;0.13;0.10;;;;;;;;;;6177474;28;20317;-76
2023/10/25 13:52:49;;;;;;;;;;;;;;;;;;6188866;28;20547;-76
2023/10/25 13:55:49;;;;;;;0.27;0.20;;;;;;;;;;6191996;28;19922;-75
2023/10/25 13:58:49;;;;;;;;;;;;;;;;;;6181804;28;20443;-76
2023/10/25 14:01:49;;;;;;;0.43;0.20;;;;;;;;;;6181217;28;20352;-76
2023/10/25 14:04:49;;;;;;;;;;;;;;;;;;6218820;28;20028;-76
2023/10/25 14:07:50;;;;;;;0.13;0.13;;;;;;;;;;6196062;28;19954;-76
2023/10/25 14:10:50;;;;;;;;;;;;;;;;;;6195640;28;20399;-75
2023/10/25 14:13:51;;;;;;;0.50;0.40;;;;;;;;;;6195302;28;19913;-75
2023/10/25 14:16:51;;;;;;;0.30;0.30;;;;;;;;;;6192594;28;20494;-76
2023/10/25 14:19:51;;;;;;;;;;;;;;;;;;6170129;28;20027;-75
2023/10/25 14:22:51;;;;;;;0.20;0.20;;;;;;;;;;6176059;28;19912;-76
2023/10/25 14:25:51;;;;;;;;;;;;;;;;;;6210531;28;20394;-75
2023/10/25 14:28:52;;;;;;;0.30;0.25;;;;;;;;;;6219557;28;20282;-75
2023/10/25 14:31:52;;;;;;;;;;;;;;;;;;6172069;28;20023;-76
2023/10/25 14:34:52;;;;;;;0.50;0.17;;;;;;;;;;6193354;28;20310;-76
2023/10/25 14:37:53;;;;;;;0.32;0.20;;;;;;;;;;6180412;28;20034;-76
2023/10/25 14:40:53;;;;;;;;;;;;;;;;;;6187824;28;20479;-77
2023/10/25 14:43:53;;;;;;;0.35;0.20;;;;;;;;;;6185040;28;20274;-76
2023/10/25 14:46:53;;;;;;;0.30;0.20;;;;;;;;;;6173685;28;20056;-76
2023/10/25 14:49:53;;;;;;;;;;;;;;;;;;6184946;28;20375;-75
2023/10/25 14:52:54;;;;;;;0.20;0.20;;;;;;;;;;6180834;28;19948;-76
2023/10/25 14:55:54;;;;;;;0.27;0.27;;;;;;;;;;6192858;28;20510;-75
2023/10/25 14:58:54;;;;;;;0.23;0.20;;;;;;;;;;6178550;28;20129;-76
2023/10/25 15:01:54;;;;;;;;;;;;;;;;;;6180618;28;20131;-76
2023/10/25 15:04:55;;;;;;;0.20;0.20;;;;;;;;;;6211466;28;20426;-76
2023/10/25 15:07:55;;;;;;;0.90;0.37;;;;;;;;;;6193759;28;20032;-76
2023/10/25 15:10:59;;;;;;;0.40;0.40;;;;;;;;;;6182337;28;20027;-78
2023/10/25 15:13:59;;;;;;;0.43;0.40;;;;;;;;;;6176723;28;20608;-80
2023/10/25 15:17:00;;;;;;;1.43;0.30;;;;;;;;;;6194236;28;20052;-80
2023/10/25 15:20:01;;;;;;;;;;;;;;;;;;6190823;28;20072;-81
2023/10/25 15:23:01;;;;;;;1.08;0.30;;;;;;;;;;6185441;28;19972;-80
2023/10/25 15:26:02;;;;;;;1.30;0.50;;;;;;;;;;6178461;28;20034;-80
2023/10/25 15:29:02;;;;;;;0.77;0.43;;;;;;;;;;6188472;28;20021;-81
2023/10/25 15:32:03;;;;;;;1.50;0.50;;;;;;;;;;6178584;28;20045;-80
2023/10/25 15:35:03;;;;;;;;;;;;;;;;;;6186530;28;20053;-81
2023/10/25 15:38:03;;;;;;;0.30;0.30;;;;;;;;;;6181992;28;19992;-81
2023/10/25 15:41:20;;;;;;;1.37;0.50;;;;;;;;;;6185750;28;20062;-81
2023/10/25 15:44:20;;;;;;;0.47;0.20;;;;;;;;;;6193434;28;20105;-81
2023/10/25 15:47:21;;;;;;;0.43;0.30;;;;;;;;;;6206452;28;20081;-81
2023/10/25 15:50:21;;;;;;;;;;;;;;;;;;6183404;28;20064;-80
2023/10/25 15:53:22;;;;;;;1.40;0.20;;;;;;;;;;6178190;28;20270;-80
2023/10/25 15:56:22;;;;;;;0.57;0.33;;;;;;;;;;6191661;28;20030;-80
2023/10/25 15:59:22;;;;;;;0.87;0.50;;;;;;;;;;6192292;28;20262;-80
2023/10/25 16:02:22;;;;;;;0.93;0.60;;;;;;;;;;6182878;28;20079;-81
2023/10/25 16:05:23;;;;;;;1.47;0.60;;;;;;;;;;6176066;28;20031;-81
2023/10/25 16:08:23;;;;;;;0.27;0.27;;;;;;;;;;6187120;28;20018;-81
2023/10/25 16:11:23;;;;;;;0.43;0.40;;;;;;;;;;6181880;28;20445;-81
2023/10/25 16:14:23;;;;;;;1.73;0.40;;;;;;;;;;6196890;28;20019;-81
2023/10/25 16:17:25;;;;;;;0.53;0.40;;;;;;;;;;6155267;28;20031;-78
2023/10/25 16:20:25;;;;;;;0.55;0.40;;;;;;;;;;6171509;28;20076;-79
2023/10/25 16:23:25;;;;;;;0.43;0.33;;;;;;;;;;6191243;28;20022;-78
2023/10/25 16:26:26;;;;;;;0.40;0.40;;;;;;;;;;6186064;28;20076;-77
2023/10/25 16:29:29;;;;;;;0.40;0.30;;;;;;;;;;6176028;28;20387;-78
2023/10/25 16:32:29;;;;;;;0.35;0.30;;;;;;;;;;6185736;28;20025;-78
2023/10/25 16:35:29;;;;;;;0.57;0.40;;;;;;;;;;6174385;28;20360;-78
2023/10/25 16:38:30;;;;;;;0.50;0.50;;;;;;;;;;6177957;28;20030;-78
2023/10/25 16:41:30;;;;;;;0.43;0.30;;;;;;;;;;6171078;28;20266;-78
2023/10/25 16:44:30;;;;;;;0.50;0.50;;;;;;;;;;6184338;28;20022;-78
2023/10/25 16:47:32;;;;;;;0.85;0.30;;;;;;;;;;6197183;28;20407;-78
2023/10/25 16:50:32;;;;;;;0.50;0.40;;;;;;;;;;6185466;28;20035;-77
2023/10/25 16:53:33;;;;;;;0.73;0.40;;;;;;;;;;6196016;28;20034;-78
2023/10/25 16:56:33;;;;;;;0.50;0.40;;;;;;;;;;6188776;28;20057;-76
2023/10/25 16:59:33;;;;;;;0.87;0.60;;;;;;;;;;6181509;28;20101;-76
2023/10/25 17:02:33;;;;;;;0.40;0.40;;;;;;;;;;6206318;28;20481;-76
2023/10/25 17:05:33;;;;;;;0.30;0.30;;;;;;;;;;6171446;28;20058;-77
2023/10/25 17:08:34;;;;;;;0.50;0.40;;;;;;;;;;6154949;28;20433;-76
2023/10/25 17:11:34;;;;;;;1.92;0.70;;;;;;;;;;6184449;28;20057;-76
2023/10/25 17:14:34;;;;;;;1.33;0.60;;;;;;;;;;6162447;28;20062;-77
2023/10/25 17:17:35;;;;;;;0.70;0.40;;;;;;;;;;6174476;28;20089;-77
2023/10/25 17:20:35;;;;;;;0.60;0.52;;;;;;;;;;6180723;28;20505;-77
2023/10/25 17:23:35;;;;;;;1.23;0.70;;;;;;;;;;6189221;28;20047;-77
2023/10/25 17:26:36;;;;;;;0.95;0.43;;;;;;;;;;6169986;28;20023;-77
2023/10/25 17:29:36;;;;;;;0.50;0.50;;;;;;;;;;6176907;28;20038;-77
2023/10/25 17:32:36;;;;;;;1.20;0.50;;;;;;;;;;6215404;28;20023;-80
2023/10/25 17:35:37;;;;;;;1.33;0.70;;;;;;;;;;6182004;28;20025;-79
2023/10/25 17:38:37;;;;;;;0.70;0.70;;;;;;;;;;6192068;28;20034;-78
2023/10/25 17:41:38;;;;;;;1.83;1.20;;;;;;;;;;6190664;28;20491;-80
2023/10/25 17:44:38;;;;;;;;;;;;;;;;;;6189591;28;20097;-82
2023/10/25 17:47:48;;;;;;;0.75;0.75;;;;;;;;;;6185031;28;19910;-82
2023/10/25 17:50:49;;;;;;;0.57;0.57;;;;;;;;;;6183157;28;20033;-84
2023/10/25 17:53:57;;;;;;;1.70;0.95;;;;;;;;;;6154591;28;20023;-82
2023/10/25 17:56:57;;;;;;;1.02;0.60;;;;;;;;;;6138841;28;20043;-87
2023/10/25 17:59:57;;;;;;;0.70;0.60;;;;;;;;;;6160782;28;20031;-86
2023/10/25 18:02:58;;;;;;;1.03;0.73;;;;;;;;;;6208177;28;20030;-91
2023/10/25 18:06:05;;;;;;;0.40;0.40;;;;;;;;;;6176320;28;20031;-85
2023/10/25 18:09:05;;;;;;;1.27;0.60;;;;;;;;;;6188219;28;20041;-85
2023/10/25 18:12:06;;;;;;;1.33;0.77;;;;;;;;;;6196660;28;20031;-84
2023/10/25 18:15:07;;;;;;;0.82;0.65;;;;;;;;;;6183160;28;20033;-84
2023/10/25 18:18:07;;;;;;;1.48;0.90;;;;;;;;;;6174727;28;20498;-84